createdAt,value
2022-11-01T00:02:17.919Z,27.50
2022-11-01T00:04:45.327Z,30.02
2022-11-01T00:07:12.672Z,27.35
2022-11-01T00:09:40.009Z,29.33
2022-11-01T00:12:07.449Z,36.50
2022-11-01T00:14:34.851Z,31.75
2022-11-01T00:17:02.742Z,27.63
2022-11-01T00:19:30.120Z,31.08
2022-11-01T00:21:57.478Z,28.25
2022-11-01T00:24:27.924Z,36.38
2022-11-01T00:26:58.207Z,26.67
2022-11-01T00:29:28.585Z,28.15
2022-11-01T00:31:56.782Z,34.88
2022-11-01T00:34:26.492Z,27.67
2022-11-01T00:36:54.395Z,31.40
2022-11-01T00:39:21.758Z,32.42
2022-11-01T00:41:49.086Z,35.03
2022-11-01T00:44:17.754Z,32.03
2022-11-01T00:46:45.076Z,26.40
2022-11-01T00:49:12.492Z,31.45
2022-11-01T00:51:39.875Z,27.88
2022-11-01T00:54:07.482Z,28.17
2022-11-01T00:56:37.747Z,25.60
2022-11-01T00:59:05.101Z,24.52
2022-11-01T01:01:32.775Z,27.35
2022-11-01T01:04:00.180Z,25.95
2022-11-01T01:06:27.454Z,28.10
2022-11-01T01:08:58.524Z,23.58
2022-11-01T01:11:26.316Z,21.07
2022-11-01T01:13:53.678Z,26.88
2022-11-01T01:16:21.100Z,21.88
2022-11-01T01:18:49.577Z,21.10
2022-11-01T01:21:17.600Z,22.58
2022-11-01T01:23:46.782Z,25.98
2022-11-01T01:26:14.473Z,29.88
2022-11-01T01:28:43.769Z,25.40
2022-11-01T01:31:16.187Z,24.95
2022-11-01T01:33:43.583Z,26.05
2022-11-01T01:36:11.145Z,28.50
2022-11-01T01:38:38.627Z,25.02
2022-11-01T01:41:25.421Z,25.70
2022-11-01T01:43:52.856Z,25.45
2022-11-01T01:46:20.468Z,23.15
2022-11-01T01:48:54.961Z,30.45
2022-11-01T01:51:26.459Z,24.52
2022-11-01T01:53:58.104Z,27.92
2022-11-01T01:56:30.789Z,26.42
2022-11-01T01:59:03.170Z,25.38
2022-11-01T02:01:31.715Z,25.48
2022-11-01T02:04:02.625Z,23.65
2022-11-01T02:06:33.373Z,24.60
2022-11-01T02:09:03.227Z,29.02
2022-11-01T02:11:30.537Z,25.35
2022-11-01T02:13:58.895Z,22.33
2022-11-01T02:16:52.279Z,20.35
2022-11-01T02:19:25.612Z,25.35
2022-11-01T02:22:20.382Z,24.15
2022-11-01T02:25:10.917Z,25.15
2022-11-01T02:27:56.432Z,22.80
2022-11-01T02:30:26.111Z,21.20
2022-11-01T02:33:05.654Z,25.80
2022-11-01T02:35:45.064Z,25.35
2022-11-01T02:38:41.663Z,28.10
2022-11-01T02:41:25.037Z,24.88
2022-11-01T02:44:02.362Z,27.98
2022-11-01T02:46:58.523Z,24.63
2022-11-01T02:49:34.060Z,25.17
2022-11-01T02:52:02.859Z,26.15
2022-11-01T02:54:38.962Z,22.38
2022-11-01T02:57:27.607Z,22.13
2022-11-01T03:00:05.072Z,26.40
2022-11-01T03:02:41.548Z,24.75
2022-11-01T03:05:16.944Z,26.48
2022-11-01T03:07:50.520Z,24.80
2022-11-01T03:10:24.197Z,27.08
2022-11-01T03:13:02.288Z,28.52
2022-11-01T03:15:39.669Z,27.13
2022-11-01T03:18:21.765Z,23.88
2022-11-01T03:21:00.870Z,26.45
2022-11-01T03:23:36.337Z,27.88
2022-11-01T03:26:08.927Z,25.70
2022-11-01T03:28:45.913Z,31.23
2022-11-01T03:31:24.187Z,22.58
2022-11-01T03:33:56.568Z,29.52
2022-11-01T03:36:27.845Z,29.27
2022-11-01T03:38:59.800Z,24.73
2022-11-01T03:43:56.160Z,27.67
2022-11-01T03:46:26.241Z,26.45
2022-11-01T03:48:53.597Z,28.77
2022-11-01T03:51:22.130Z,35.42
2022-11-01T03:53:49.461Z,25.88
2022-11-01T03:56:16.806Z,22.90
2022-11-01T03:58:45.250Z,22.60
2022-11-01T04:01:16.592Z,26.42
2022-11-01T04:03:45.033Z,26.98
2022-11-01T04:06:12.383Z,26.35
2022-11-01T04:08:39.859Z,24.88
2022-11-01T04:11:07.281Z,32.75
2022-11-01T04:13:34.651Z,22.88
2022-11-01T04:16:20.616Z,27.58
2022-11-01T04:19:06.512Z,26.92
2022-11-01T04:21:36.742Z,26.25
2022-11-01T04:24:04.310Z,29.85
2022-11-01T04:26:31.710Z,24.52
2022-11-01T04:28:59.057Z,26.90
2022-11-01T04:31:28.059Z,26.15
2022-11-01T04:33:56.862Z,30.67
2022-11-01T04:36:24.764Z,27.80
2022-11-01T04:38:55.738Z,24.27
2022-11-01T04:41:24.839Z,29.25
2022-11-01T04:44:00.235Z,26.83
2022-11-01T04:46:31.882Z,26.92
2022-11-01T04:48:59.243Z,24.88
2022-11-01T04:51:26.837Z,19.58
2022-11-01T04:53:54.138Z,23.60
2022-11-01T04:56:21.448Z,15.32
2022-11-01T04:58:48.746Z,18.85
2022-11-01T05:01:16.246Z,28.95
2022-11-01T05:03:43.753Z,23.45
2022-11-01T05:06:13.597Z,20.95
2022-11-01T05:08:43.852Z,22.40
2022-11-01T05:11:11.177Z,21.55
2022-11-01T05:13:40.525Z,22.02
2022-11-01T05:16:19.838Z,27.35
2022-11-01T05:18:48.761Z,24.23
2022-11-01T05:21:17.878Z,24.35
2022-11-01T05:23:47.950Z,25.58
2022-11-01T05:26:15.355Z,24.42
2022-11-01T05:28:42.733Z,24.23
2022-11-01T05:31:10.107Z,21.38
2022-11-01T05:33:38.488Z,25.48
2022-11-01T05:36:06.211Z,20.70
2022-11-01T05:38:33.568Z,25.73
2022-11-01T05:41:04.107Z,20.23
2022-11-01T05:43:31.572Z,27.77
2022-11-01T05:46:00.754Z,20.55
2022-11-01T05:48:28.118Z,25.52
2022-11-01T05:50:55.473Z,27.77
2022-11-01T05:53:22.820Z,28.77
2022-11-01T05:55:50.249Z,24.50
2022-11-01T05:58:17.569Z,29.55
2022-11-01T06:00:44.929Z,25.27
2022-11-01T06:03:12.283Z,24.58
2022-11-01T06:05:39.802Z,28.10
2022-11-01T06:08:07.360Z,30.98
2022-11-01T06:10:34.996Z,30.98
2022-11-01T06:13:02.712Z,29.05
2022-11-01T06:15:33.107Z,27.98
2022-11-01T06:18:04.202Z,32.83
2022-11-01T06:20:32.753Z,31.40
2022-11-01T06:23:00.537Z,30.83
2022-11-01T06:25:27.992Z,32.92
2022-11-01T06:27:55.305Z,31.20
2022-11-01T06:30:24.454Z,29.30
2022-11-01T06:32:52.994Z,30.55
2022-11-01T06:35:20.383Z,31.92
2022-11-01T06:37:47.664Z,37.15
2022-11-01T06:40:14.997Z,36.90
2022-11-01T06:42:46.381Z,36.25
2022-11-01T06:45:14.326Z,35.05
2022-11-01T06:47:46.530Z,37.08
2022-11-01T06:50:13.936Z,40.33
2022-11-01T06:52:41.278Z,44.78
2022-11-01T06:55:08.818Z,40.10
2022-11-01T06:57:36.103Z,43.70
2022-11-01T07:00:06.960Z,40.47
2022-11-01T07:02:34.447Z,38.78
2022-11-01T07:05:01.918Z,36.25
2022-11-01T07:07:29.406Z,36.28
2022-11-01T07:09:56.660Z,41.10
2022-11-01T07:12:23.973Z,39.40
2022-11-01T07:14:51.201Z,41.03
2022-11-01T07:17:18.565Z,42.03
2022-11-01T07:19:45.866Z,41.83
2022-11-01T07:22:14.345Z,42.00
2022-11-01T07:24:41.704Z,42.78
2022-11-01T07:27:09.055Z,40.42
2022-11-01T07:29:36.300Z,40.22
2022-11-01T07:32:03.592Z,39.90
2022-11-01T07:34:32.906Z,42.88
2022-11-01T07:37:02.360Z,41.97
2022-11-01T07:39:29.658Z,45.65
2022-11-01T07:41:58.987Z,39.65
2022-11-01T07:44:26.246Z,39.03
2022-11-01T07:46:53.632Z,44.50
2022-11-01T07:49:21.036Z,45.35
2022-11-01T07:51:48.318Z,41.08
2022-11-01T07:54:15.619Z,45.95
2022-11-01T07:56:43.053Z,42.38
2022-11-01T07:59:10.329Z,44.45
2022-11-01T08:01:37.738Z,48.50
2022-11-01T08:04:05.442Z,44.50
2022-11-01T08:06:32.860Z,41.22
2022-11-01T08:09:00.190Z,46.75
2022-11-01T08:11:28.631Z,42.13
2022-11-01T08:14:02.893Z,39.47
2022-11-01T08:16:33.522Z,40.85
2022-11-01T08:19:00.882Z,37.15
2022-11-01T08:21:28.276Z,38.30
2022-11-01T08:23:55.636Z,40.67
2022-11-01T08:26:23.009Z,41.58
2022-11-01T08:28:50.931Z,45.17
2022-11-01T08:31:21.208Z,38.28
2022-11-01T08:33:48.642Z,36.42
2022-11-01T08:36:17.405Z,40.13
2022-11-01T08:38:44.744Z,35.08
2022-11-01T08:41:12.112Z,38.60
2022-11-01T08:43:40.689Z,40.30
2022-11-01T08:46:10.686Z,37.22
2022-11-01T08:48:40.802Z,35.67
2022-11-01T08:51:08.146Z,41.70
2022-11-01T08:53:35.439Z,34.90
2022-11-01T08:56:02.829Z,37.35
2022-11-01T08:58:30.145Z,38.25
2022-11-01T09:00:57.459Z,38.78
2022-11-01T09:03:24.802Z,37.38
2022-11-01T09:05:55.043Z,41.13
2022-11-01T09:08:25.145Z,39.85
2022-11-01T09:10:57.896Z,41.00
2022-11-01T09:13:25.382Z,35.47
2022-11-01T09:15:58.479Z,36.13
2022-11-01T09:18:28.703Z,37.97
2022-11-01T09:20:56.549Z,38.20
2022-11-01T09:23:23.902Z,45.05
2022-11-01T09:25:51.366Z,39.53
2022-11-01T09:28:18.700Z,41.88
2022-11-01T09:30:50.231Z,42.05
2022-11-01T09:33:28.507Z,43.20
2022-11-01T09:35:59.543Z,48.97
2022-11-01T09:38:27.978Z,42.72
2022-11-01T09:41:14.297Z,37.45
2022-11-01T09:43:44.065Z,37.15
2022-11-01T09:46:15.871Z,36.15
2022-11-01T09:48:45.505Z,41.13
2022-11-01T09:51:19.716Z,39.17
2022-11-01T09:53:54.068Z,42.22
2022-11-01T09:56:30.387Z,36.97
2022-11-01T09:59:22.661Z,46.25
2022-11-01T10:02:26.381Z,41.83
2022-11-01T10:05:27.613Z,48.28
2022-11-01T10:08:10.758Z,40.92
2022-11-01T10:11:09.399Z,42.35
2022-11-01T10:13:54.336Z,45.60
2022-11-01T10:16:37.721Z,49.42
2022-11-01T10:19:17.462Z,45.33
2022-11-01T10:21:47.117Z,45.75
2022-11-01T10:24:20.520Z,41.03
2022-11-01T10:26:54.111Z,40.20
2022-11-01T10:29:36.252Z,46.05
2022-11-01T10:34:38.671Z,40.42
2022-11-01T10:37:23.556Z,41.63
2022-11-01T10:39:59.057Z,42.08
2022-11-01T10:42:30.364Z,41.97
2022-11-01T10:45:06.549Z,46.45
2022-11-01T10:47:33.940Z,51.17
2022-11-01T10:50:20.939Z,44.13
2022-11-01T10:52:48.171Z,39.88
2022-11-01T10:55:33.136Z,50.65
2022-11-01T10:58:08.658Z,48.10
2022-11-01T11:00:40.048Z,45.38
2022-11-01T11:03:30.382Z,48.33
2022-11-01T11:06:01.541Z,46.65
2022-11-01T11:08:28.969Z,51.93
2022-11-01T11:11:01.636Z,44.10
2022-11-01T11:13:30.481Z,50.28
2022-11-01T11:16:05.453Z,46.95
2022-11-01T11:18:35.402Z,44.97
2022-11-01T11:21:06.179Z,57.25
2022-11-01T11:23:34.758Z,46.25
2022-11-01T11:26:16.585Z,43.33
2022-11-01T11:28:48.900Z,55.13
2022-11-01T11:31:23.101Z,42.30
2022-11-01T11:33:56.570Z,51.05
2022-11-01T11:36:34.011Z,49.15
2022-11-01T11:39:02.820Z,48.40
2022-11-01T11:41:33.222Z,47.70
2022-11-01T11:44:01.613Z,49.22
2022-11-01T11:46:29.520Z,44.70
2022-11-01T11:49:07.215Z,48.22
2022-11-01T11:51:39.430Z,45.47
2022-11-01T11:54:37.670Z,49.65
2022-11-01T11:57:11.699Z,47.28
2022-11-01T11:59:40.191Z,51.03
2022-11-01T12:02:18.965Z,46.83
2022-11-01T12:04:53.195Z,50.72
2022-11-01T12:07:27.659Z,43.40
2022-11-01T12:09:56.337Z,43.45
2022-11-01T12:12:29.608Z,45.03
2022-11-01T12:14:58.950Z,39.90
2022-11-01T12:17:44.837Z,41.95
2022-11-01T12:20:22.309Z,41.13
2022-11-01T12:22:59.218Z,40.17
2022-11-01T12:25:26.884Z,40.70
2022-11-01T12:28:03.481Z,35.70
2022-11-01T12:30:33.506Z,36.47
2022-11-01T12:33:27.779Z,31.52
2022-11-01T12:35:58.445Z,37.60
2022-11-01T12:38:48.891Z,30.77
2022-11-01T12:41:38.059Z,33.33
2022-11-01T12:44:43.967Z,32.28
2022-11-01T12:47:27.790Z,39.45
2022-11-01T12:50:07.292Z,34.90
2022-11-01T12:53:01.191Z,35.13
2022-11-01T12:55:39.916Z,31.20
2022-11-01T12:58:19.127Z,29.35
2022-11-01T13:01:02.350Z,31.35
2022-11-01T13:03:49.678Z,32.80
2022-11-01T13:06:54.330Z,61.53
2022-11-01T13:09:40.478Z,39.20
2022-11-01T13:12:40.135Z,36.10
2022-11-01T13:15:25.591Z,34.17
2022-11-01T13:18:35.787Z,30.20
2022-11-01T13:21:15.342Z,32.72
2022-11-01T13:23:49.981Z,29.63
2022-11-01T13:26:37.645Z,31.33
2022-11-01T13:29:14.327Z,32.28
2022-11-01T13:32:07.487Z,30.65
2022-11-01T13:35:02.120Z,29.65
2022-11-01T13:37:45.339Z,25.20
2022-11-01T13:40:18.666Z,28.95
2022-11-01T13:42:59.939Z,26.23
2022-11-01T13:45:33.540Z,22.65
2022-11-01T13:48:18.992Z,119.70
2022-11-01T13:50:58.386Z,67.25
2022-11-01T13:53:25.684Z,36.97
2022-11-01T13:55:55.434Z,20.75
2022-11-01T13:58:23.929Z,17.70
2022-11-01T14:00:54.533Z,14.00
2022-11-01T14:03:31.578Z,15.00
2022-11-01T14:06:11.560Z,14.00
2022-11-01T14:08:44.038Z,19.17
2022-11-01T14:11:32.337Z,15.30
2022-11-01T14:13:59.864Z,14.95
2022-11-01T14:16:28.236Z,16.95
2022-11-01T14:19:20.752Z,16.67
2022-11-01T14:21:51.830Z,16.77
2022-11-01T14:24:33.829Z,13.63
2022-11-01T14:27:07.859Z,16.85
2022-11-01T14:29:36.630Z,18.33
2022-11-01T14:32:05.718Z,13.93
2022-11-01T14:34:36.094Z,25.63
2022-11-01T14:37:13.881Z,21.75
2022-11-01T14:39:49.674Z,18.63
2022-11-01T14:42:23.243Z,13.15
2022-11-01T14:44:53.808Z,16.58
2022-11-01T14:47:31.398Z,12.75
2022-11-01T14:50:02.919Z,17.67
2022-11-01T14:52:40.681Z,18.75
2022-11-01T14:55:32.286Z,16.17
2022-11-01T14:58:19.617Z,13.63
2022-11-01T15:00:49.703Z,11.68
2022-11-01T15:03:18.470Z,14.45
2022-11-01T15:05:49.114Z,19.48
2022-11-01T15:08:44.719Z,13.77
2022-11-01T15:11:12.189Z,17.73
2022-11-01T15:13:43.061Z,17.33
2022-11-01T15:16:16.007Z,20.65
2022-11-01T15:18:51.734Z,15.55
2022-11-01T15:21:25.515Z,15.02
2022-11-01T15:23:57.424Z,14.75
2022-11-01T15:26:30.434Z,14.52
2022-11-01T15:29:01.432Z,17.73
2022-11-01T15:31:29.364Z,18.60
2022-11-01T15:34:06.350Z,13.57
2022-11-01T15:36:36.838Z,19.27
2022-11-01T15:39:17.499Z,15.32
2022-11-01T15:41:46.612Z,22.38
2022-11-01T15:44:32.448Z,17.83
2022-11-01T15:47:02.338Z,17.17
2022-11-01T15:49:32.082Z,17.77
2022-11-01T15:52:05.201Z,15.25
2022-11-01T15:54:32.473Z,19.55
2022-11-01T15:57:04.486Z,21.42
2022-11-01T16:02:08.671Z,18.73
2022-11-01T16:07:12.490Z,20.25
2022-11-01T16:09:47.358Z,18.17
2022-11-01T16:12:27.185Z,17.08
2022-11-01T16:15:06.475Z,21.55
2022-11-01T16:17:42.892Z,19.98
2022-11-01T16:20:34.469Z,22.20
2022-11-01T16:23:07.025Z,17.63
2022-11-01T16:25:39.319Z,20.38
2022-11-01T16:28:09.617Z,18.55
2022-11-01T16:30:46.509Z,22.42
2022-11-01T16:33:30.738Z,20.42
2022-11-01T16:36:20.819Z,21.52
2022-11-01T16:38:51.976Z,21.67
2022-11-01T16:41:22.712Z,20.97
2022-11-01T16:43:55.364Z,16.88
2022-11-01T16:46:24.426Z,19.50
2022-11-01T16:49:05.623Z,18.02
2022-11-01T16:51:33.728Z,20.55
2022-11-01T16:54:01.315Z,19.55
2022-11-01T16:56:38.446Z,17.63
2022-11-01T16:59:12.429Z,23.25
2022-11-01T17:01:40.000Z,22.38
2022-11-01T17:04:11.294Z,21.70
2022-11-01T17:06:39.508Z,18.30
2022-11-01T17:09:14.757Z,20.33
2022-11-01T17:11:47.803Z,21.88
2022-11-01T17:14:18.118Z,18.95
2022-11-01T17:16:47.632Z,17.60
2022-11-01T17:19:21.452Z,16.08
2022-11-01T17:21:50.901Z,16.95
2022-11-01T17:24:21.336Z,20.42
2022-11-01T17:26:51.014Z,20.13
2022-11-01T17:29:18.409Z,19.30
2022-11-01T17:31:45.735Z,23.67
2022-11-01T17:34:16.899Z,17.45
2022-11-01T17:36:48.037Z,17.92
2022-11-01T17:39:15.531Z,23.27
2022-11-01T17:41:42.921Z,22.40
2022-11-01T17:44:12.205Z,22.15
2022-11-01T17:46:40.031Z,23.50
2022-11-01T17:49:07.487Z,25.80
2022-11-01T17:51:34.891Z,20.02
2022-11-01T17:54:02.224Z,29.13
2022-11-01T17:56:29.596Z,20.60
2022-11-01T17:58:56.911Z,19.75
2022-11-01T18:01:24.889Z,23.88
2022-11-01T18:03:52.287Z,20.52
2022-11-01T18:06:19.632Z,25.10
2022-11-01T18:08:50.504Z,22.10
2022-11-01T18:11:34.457Z,22.50
2022-11-01T18:14:30.980Z,24.05
2022-11-01T18:17:13.201Z,22.83
2022-11-01T18:22:38.427Z,24.85
2022-11-01T18:25:24.259Z,26.25
2022-11-01T18:27:51.795Z,23.58
2022-11-01T18:30:19.529Z,22.52
2022-11-01T18:33:04.950Z,22.67
2022-11-01T18:35:41.888Z,25.67
2022-11-01T18:38:21.904Z,21.10
2022-11-01T18:40:57.217Z,27.17
2022-11-01T18:43:27.078Z,22.20
2022-11-01T18:46:23.476Z,22.10
2022-11-01T18:48:42.792Z,24.17
2022-11-01T18:51:21.247Z,26.65
2022-11-01T18:53:54.813Z,21.70
2022-11-01T18:56:25.567Z,22.67
2022-11-01T18:58:55.327Z,29.27
2022-11-01T19:01:32.525Z,25.45
2022-11-01T19:04:21.481Z,24.85
2022-11-01T19:06:51.554Z,24.73
2022-11-01T19:09:24.472Z,25.02
2022-11-01T19:12:00.860Z,24.30
2022-11-01T19:14:30.436Z,27.10
2022-11-01T19:16:58.132Z,24.10
2022-11-01T19:19:25.571Z,24.35
2022-11-01T19:21:59.059Z,21.98
2022-11-01T19:24:36.132Z,23.83
2022-11-01T19:27:18.418Z,24.95
2022-11-01T19:29:45.853Z,24.55
2022-11-01T19:32:16.402Z,28.27
2022-11-01T19:34:43.898Z,22.77
2022-11-01T19:37:34.626Z,27.20
2022-11-01T19:40:09.953Z,22.95
2022-11-01T19:42:38.868Z,24.52
2022-11-01T19:45:12.385Z,23.58
2022-11-01T19:47:43.231Z,24.13
2022-11-01T19:50:34.061Z,30.92
2022-11-01T19:53:01.654Z,27.92
2022-11-01T19:56:05.039Z,31.30
2022-11-01T19:58:49.078Z,26.58
2022-11-01T20:01:16.596Z,24.83
2022-11-01T20:03:46.056Z,24.40
2022-11-01T20:06:21.288Z,28.75
2022-11-01T20:08:58.422Z,23.45
2022-11-01T20:11:26.959Z,23.70
2022-11-01T20:13:57.575Z,23.48
2022-11-01T20:16:25.781Z,22.20
2022-11-01T20:18:53.883Z,21.55
2022-11-01T20:21:22.486Z,23.67
2022-11-01T20:23:50.073Z,28.20
2022-11-01T20:26:17.533Z,31.75
2022-11-01T20:28:44.955Z,25.15
2022-11-01T20:31:13.930Z,23.10
2022-11-01T20:33:41.467Z,20.90
2022-11-01T20:36:11.437Z,26.45
2022-11-01T20:38:40.875Z,24.08
2022-11-01T20:41:09.720Z,22.63
2022-11-01T20:43:37.377Z,22.65
2022-11-01T20:46:04.963Z,25.83
2022-11-01T20:48:34.204Z,27.80
2022-11-01T20:51:01.913Z,25.05
2022-11-01T20:53:30.036Z,22.40
2022-11-01T20:55:57.572Z,20.02
2022-11-01T20:58:28.574Z,38.95
2022-11-01T21:00:56.462Z,45.95
2022-11-01T21:03:25.623Z,26.23
2022-11-01T21:05:53.301Z,28.17
2022-11-01T21:08:34.207Z,24.27
2022-11-01T21:11:08.131Z,21.83
2022-11-01T21:13:39.052Z,22.58
2022-11-01T21:16:24.335Z,21.13
2022-11-01T21:18:54.975Z,22.45
2022-11-01T21:21:27.417Z,20.10
2022-11-01T21:23:55.182Z,18.30
2022-11-01T21:26:25.917Z,23.88
2022-11-01T21:29:02.353Z,22.75
2022-11-01T21:31:34.502Z,20.42
2022-11-01T21:34:11.015Z,20.15
2022-11-01T21:36:48.472Z,18.13
2022-11-01T21:39:26.994Z,15.98
2022-11-01T21:41:57.069Z,16.63
2022-11-01T21:44:40.022Z,17.55
2022-11-01T21:47:23.333Z,21.17
2022-11-01T21:49:51.445Z,15.85
2022-11-01T21:52:21.630Z,20.13
2022-11-01T21:54:49.347Z,22.15
2022-11-01T21:57:17.311Z,17.83
2022-11-01T21:59:44.941Z,14.40
2022-11-01T22:02:14.307Z,16.92
2022-11-01T22:04:42.175Z,19.90
2022-11-01T22:07:11.082Z,14.50
2022-11-01T22:09:39.089Z,15.55
2022-11-01T22:12:07.051Z,15.68
2022-11-01T22:14:34.990Z,15.27
2022-11-01T22:17:02.413Z,17.13
2022-11-01T22:19:29.789Z,18.23
2022-11-01T22:21:57.130Z,15.70
2022-11-01T22:24:27.115Z,18.30
2022-11-01T22:26:54.462Z,15.35
2022-11-01T22:29:21.814Z,15.18
2022-11-01T22:31:49.163Z,18.23
2022-11-01T22:34:17.471Z,17.73
2022-11-01T22:36:44.954Z,20.15
2022-11-01T22:39:23.522Z,18.42
2022-11-01T22:41:51.309Z,19.45
2022-11-01T22:44:25.299Z,21.85
2022-11-01T22:46:58.991Z,18.20
2022-11-01T22:49:31.448Z,20.23
2022-11-01T22:54:47.726Z,23.13
2022-11-01T22:57:19.117Z,24.27
2022-11-01T22:59:51.808Z,25.58
2022-11-01T23:02:33.604Z,24.15
2022-11-01T23:05:24.886Z,26.52
2022-11-01T23:07:57.973Z,23.48
2022-11-01T23:10:25.646Z,20.75
2022-11-01T23:13:19.469Z,21.65
2022-11-01T23:15:47.166Z,20.10
2022-11-01T23:18:27.808Z,23.63
2022-11-01T23:21:00.460Z,17.45
2022-11-01T23:23:29.023Z,20.50
2022-11-01T23:25:59.370Z,18.65
2022-11-01T23:28:27.647Z,20.08
2022-11-01T23:30:56.386Z,27.73
2022-11-01T23:33:30.935Z,18.40
2022-11-01T23:36:00.934Z,21.48
2022-11-01T23:38:51.200Z,18.67
2022-11-01T23:41:23.664Z,16.20
2022-11-01T23:43:53.696Z,17.45
2022-11-01T23:46:21.264Z,20.40
2022-11-01T23:48:49.214Z,18.02
2022-11-01T23:51:21.343Z,20.60
2022-11-01T23:53:52.970Z,19.60
2022-11-01T23:56:22.009Z,20.23
2022-11-01T23:59:04.303Z,17.63
